sensor_id;sensor_type;location;lat;lon;timestamp;P1;durP1;ratioP1;P2;durP2;ratioP2
67981;SDS011;64109;52.148;4.466;2023-04-10T00:01:37;6.03;;;4.88;;
67981;SDS011;64109;52.148;4.466;2023-04-10T00:04:03;6.70;;;5.18;;
67981;SDS011;64109;52.148;4.466;2023-04-10T00:06:29;7.00;;;4.78;;
67981;SDS011;64109;52.148;4.466;2023-04-10T00:08:56;7.70;;;4.88;;
67981;SDS011;64109;52.148;4.466;2023-04-10T00:11:23;7.57;;;5.25;;
67981;SDS011;64109;52.148;4.466;2023-04-10T00:13:49;7.53;;;5.15;;
67981;SDS011;64109;52.148;4.466;2023-04-10T00:16:15;7.45;;;5.03;;
67981;SDS011;64109;52.148;4.466;2023-04-10T00:18:41;7.57;;;5.38;;
67981;SDS011;64109;52.148;4.466;2023-04-10T00:21:07;6.88;;;4.78;;
67981;SDS011;64109;52.148;4.466;2023-04-10T00:23:33;6.50;;;4.85;;
67981;SDS011;64109;52.148;4.466;2023-04-10T00:25:59;7.07;;;5.10;;
67981;SDS011;64109;52.148;4.466;2023-04-10T00:28:26;6.85;;;4.93;;
67981;SDS011;64109;52.148;4.466;2023-04-10T00:30:52;7.43;;;5.18;;
67981;SDS011;64109;52.148;4.466;2023-04-10T00:33:18;8.23;;;5.35;;
67981;SDS011;64109;52.148;4.466;2023-04-10T00:35:44;6.57;;;4.97;;
67981;SDS011;64109;52.148;4.466;2023-04-10T00:38:10;7.13;;;5.55;;
67981;SDS011;64109;52.148;4.466;2023-04-10T00:40:37;9.35;;;5.10;;
67981;SDS011;64109;52.148;4.466;2023-04-10T00:43:03;6.90;;;4.78;;
67981;SDS011;64109;52.148;4.466;2023-04-10T00:45:29;6.68;;;5.13;;
67981;SDS011;64109;52.148;4.466;2023-04-10T00:47:55;7.22;;;4.88;;
67981;SDS011;64109;52.148;4.466;2023-04-10T00:50:21;7.10;;;4.78;;
67981;SDS011;64109;52.148;4.466;2023-04-10T00:52:48;7.15;;;5.07;;
67981;SDS011;64109;52.148;4.466;2023-04-10T00:55:15;8.00;;;5.05;;
67981;SDS011;64109;52.148;4.466;2023-04-10T00:57:44;7.32;;;5.20;;
67981;SDS011;64109;52.148;4.466;2023-04-10T01:00:12;6.60;;;4.70;;
67981;SDS011;64109;52.148;4.466;2023-04-10T01:02:38;6.63;;;4.97;;
67981;SDS011;64109;52.148;4.466;2023-04-10T01:05:04;6.70;;;4.35;;
67981;SDS011;64109;52.148;4.466;2023-04-10T01:12:43;7.68;;;5.05;;
67981;SDS011;64109;52.148;4.466;2023-04-10T01:15:15;6.47;;;4.63;;
67981;SDS011;64109;52.148;4.466;2023-04-10T01:17:45;6.85;;;4.97;;
67981;SDS011;64109;52.148;4.466;2023-04-10T01:20:15;6.43;;;4.88;;
67981;SDS011;64109;52.148;4.466;2023-04-10T01:27:43;6.47;;;4.82;;
67981;SDS011;64109;52.148;4.466;2023-04-10T01:30:13;6.32;;;5.35;;
67981;SDS011;64109;52.148;4.466;2023-04-10T01:35:06;8.55;;;5.22;;
67981;SDS011;64109;52.148;4.466;2023-04-10T01:37:33;7.45;;;4.93;;
67981;SDS011;64109;52.148;4.466;2023-04-10T01:40:02;6.30;;;4.22;;
67981;SDS011;64109;52.148;4.466;2023-04-10T01:44:56;7.20;;;4.88;;
67981;SDS011;64109;52.148;4.466;2023-04-10T01:47:23;6.43;;;4.60;;
67981;SDS011;64109;52.148;4.466;2023-04-10T01:49:50;6.85;;;5.07;;
67981;SDS011;64109;52.148;4.466;2023-04-10T01:52:16;6.28;;;4.20;;
67981;SDS011;64109;52.148;4.466;2023-04-10T01:54:43;7.32;;;4.78;;
67981;SDS011;64109;52.148;4.466;2023-04-10T01:57:12;6.75;;;4.47;;
67981;SDS011;64109;52.148;4.466;2023-04-10T01:59:39;7.30;;;4.97;;
67981;SDS011;64109;52.148;4.466;2023-04-10T02:02:05;7.40;;;4.57;;
67981;SDS011;64109;52.148;4.466;2023-04-10T02:04:31;7.07;;;4.55;;
67981;SDS011;64109;52.148;4.466;2023-04-10T02:11:57;6.78;;;4.88;;
67981;SDS011;64109;52.148;4.466;2023-04-10T02:14:25;6.38;;;4.82;;
67981;SDS011;64109;52.148;4.466;2023-04-10T02:16:53;6.38;;;4.22;;
67981;SDS011;64109;52.148;4.466;2023-04-10T02:19:19;5.85;;;4.45;;
67981;SDS011;64109;52.148;4.466;2023-04-10T02:21:47;6.65;;;4.70;;
67981;SDS011;64109;52.148;4.466;2023-04-10T02:24:13;6.35;;;4.78;;
67981;SDS011;64109;52.148;4.466;2023-04-10T02:26:43;6.40;;;4.70;;
67981;SDS011;64109;52.148;4.466;2023-04-10T02:29:09;6.95;;;4.88;;
67981;SDS011;64109;52.148;4.466;2023-04-10T02:31:36;8.15;;;4.45;;
67981;SDS011;64109;52.148;4.466;2023-04-10T02:34:02;7.55;;;4.95;;
67981;SDS011;64109;52.148;4.466;2023-04-10T02:36:28;6.28;;;4.78;;
67981;SDS011;64109;52.148;4.466;2023-04-10T02:38:54;6.60;;;4.15;;
67981;SDS011;64109;52.148;4.466;2023-04-10T02:41:20;8.63;;;4.82;;
67981;SDS011;64109;52.148;4.466;2023-04-10T02:43:46;6.28;;;4.72;;
67981;SDS011;64109;52.148;4.466;2023-04-10T02:46:12;6.03;;;4.07;;
67981;SDS011;64109;52.148;4.466;2023-04-10T02:48:38;6.82;;;4.63;;
67981;SDS011;64109;52.148;4.466;2023-04-10T02:51:04;7.57;;;4.50;;
67981;SDS011;64109;52.148;4.466;2023-04-10T02:53:31;5.68;;;4.32;;
67981;SDS011;64109;52.148;4.466;2023-04-10T02:55:57;5.95;;;4.45;;
67981;SDS011;64109;52.148;4.466;2023-04-10T02:58:23;5.88;;;4.30;;
67981;SDS011;64109;52.148;4.466;2023-04-10T03:00:50;5.68;;;4.45;;
67981;SDS011;64109;52.148;4.466;2023-04-10T03:03:17;6.75;;;4.68;;
67981;SDS011;64109;52.148;4.466;2023-04-10T03:05:43;5.72;;;4.35;;
67981;SDS011;64109;52.148;4.466;2023-04-10T03:08:13;6.75;;;4.55;;
67981;SDS011;64109;52.148;4.466;2023-04-10T03:10:41;6.35;;;4.35;;
67981;SDS011;64109;52.148;4.466;2023-04-10T03:13:07;8.18;;;4.72;;
67981;SDS011;64109;52.148;4.466;2023-04-10T03:15:33;6.32;;;4.40;;
67981;SDS011;64109;52.148;4.466;2023-04-10T03:17:59;7.00;;;4.80;;
67981;SDS011;64109;52.148;4.466;2023-04-10T03:20:26;7.00;;;4.70;;
67981;SDS011;64109;52.148;4.466;2023-04-10T03:22:52;7.15;;;4.97;;
67981;SDS011;64109;52.148;4.466;2023-04-10T03:25:18;6.13;;;4.22;;
67981;SDS011;64109;52.148;4.466;2023-04-10T03:27:44;6.65;;;4.30;;
67981;SDS011;64109;52.148;4.466;2023-04-10T03:30:11;7.38;;;4.93;;
67981;SDS011;64109;52.148;4.466;2023-04-10T03:32:37;5.50;;;4.18;;
67981;SDS011;64109;52.148;4.466;2023-04-10T03:35:06;5.32;;;4.20;;
67981;SDS011;64109;52.148;4.466;2023-04-10T03:37:32;5.82;;;4.65;;
67981;SDS011;64109;52.148;4.466;2023-04-10T03:39:58;6.70;;;4.95;;
67981;SDS011;64109;52.148;4.466;2023-04-10T03:42:24;5.45;;;4.47;;
67981;SDS011;64109;52.148;4.466;2023-04-10T03:44:50;6.65;;;4.30;;
67981;SDS011;64109;52.148;4.466;2023-04-10T03:47:16;7.53;;;4.68;;
67981;SDS011;64109;52.148;4.466;2023-04-10T03:49:42;6.63;;;4.20;;
67981;SDS011;64109;52.148;4.466;2023-04-10T03:52:08;7.30;;;4.45;;
67981;SDS011;64109;52.148;4.466;2023-04-10T03:54:33;4.88;;;3.80;;
67981;SDS011;64109;52.148;4.466;2023-04-10T03:57:00;7.32;;;4.75;;
67981;SDS011;64109;52.148;4.466;2023-04-10T03:59:26;7.13;;;4.32;;
67981;SDS011;64109;52.148;4.466;2023-04-10T04:01:52;5.53;;;3.92;;
67981;SDS011;64109;52.148;4.466;2023-04-10T04:04:18;5.35;;;3.95;;
67981;SDS011;64109;52.148;4.466;2023-04-10T04:06:44;6.95;;;4.65;;
67981;SDS011;64109;52.148;4.466;2023-04-10T04:09:10;6.35;;;4.10;;
67981;SDS011;64109;52.148;4.466;2023-04-10T04:11:36;7.43;;;4.50;;
67981;SDS011;64109;52.148;4.466;2023-04-10T04:14:02;5.55;;;3.88;;
67981;SDS011;64109;52.148;4.466;2023-04-10T04:16:28;7.55;;;4.40;;
67981;SDS011;64109;52.148;4.466;2023-04-10T04:18:54;8.38;;;4.50;;
67981;SDS011;64109;52.148;4.466;2023-04-10T04:21:20;6.57;;;3.80;;
67981;SDS011;64109;52.148;4.466;2023-04-10T04:23:46;6.88;;;4.28;;
67981;SDS011;64109;52.148;4.466;2023-04-10T04:26:12;5.43;;;3.85;;
67981;SDS011;64109;52.148;4.466;2023-04-10T04:28:38;5.65;;;3.97;;
67981;SDS011;64109;52.148;4.466;2023-04-10T04:31:04;5.88;;;4.20;;
67981;SDS011;64109;52.148;4.466;2023-04-10T04:33:30;5.90;;;4.07;;
67981;SDS011;64109;52.148;4.466;2023-04-10T04:35:56;5.70;;;4.00;;
67981;SDS011;64109;52.148;4.466;2023-04-10T04:38:22;5.47;;;3.95;;
67981;SDS011;64109;52.148;4.466;2023-04-10T04:40:48;6.07;;;3.92;;
67981;SDS011;64109;52.148;4.466;2023-04-10T04:43:14;6.20;;;4.25;;
67981;SDS011;64109;52.148;4.466;2023-04-10T04:45:40;6.03;;;4.28;;
67981;SDS011;64109;52.148;4.466;2023-04-10T04:48:06;5.20;;;3.95;;
67981;SDS011;64109;52.148;4.466;2023-04-10T04:50:32;5.68;;;3.78;;
67981;SDS011;64109;52.148;4.466;2023-04-10T04:52:58;6.15;;;4.07;;
67981;SDS011;64109;52.148;4.466;2023-04-10T04:55:24;5.78;;;4.05;;
67981;SDS011;64109;52.148;4.466;2023-04-10T04:57:50;7.30;;;4.00;;
67981;SDS011;64109;52.148;4.466;2023-04-10T05:00:16;5.93;;;3.70;;
67981;SDS011;64109;52.148;4.466;2023-04-10T05:02:42;5.03;;;3.53;;
67981;SDS011;64109;52.148;4.466;2023-04-10T05:05:08;5.50;;;4.20;;
67981;SDS011;64109;52.148;4.466;2023-04-10T05:07:34;5.32;;;3.63;;
67981;SDS011;64109;52.148;4.466;2023-04-10T05:10:00;5.13;;;3.90;;
67981;SDS011;64109;52.148;4.466;2023-04-10T05:12:27;4.50;;;3.53;;
67981;SDS011;64109;52.148;4.466;2023-04-10T05:14:53;5.18;;;3.60;;
67981;SDS011;64109;52.148;4.466;2023-04-10T05:17:19;5.35;;;4.22;;
67981;SDS011;64109;52.148;4.466;2023-04-10T05:19:45;4.90;;;3.85;;
67981;SDS011;64109;52.148;4.466;2023-04-10T05:22:11;6.55;;;4.20;;
67981;SDS011;64109;52.148;4.466;2023-04-10T05:24:37;5.75;;;3.65;;
67981;SDS011;64109;52.148;4.466;2023-04-10T05:27:03;5.70;;;4.22;;
67981;SDS011;64109;52.148;4.466;2023-04-10T05:29:29;7.63;;;4.30;;
67981;SDS011;64109;52.148;4.466;2023-04-10T05:31:55;5.60;;;3.83;;
67981;SDS011;64109;52.148;4.466;2023-04-10T05:34:21;4.72;;;3.65;;
67981;SDS011;64109;52.148;4.466;2023-04-10T05:36:47;7.57;;;3.78;;
67981;SDS011;64109;52.148;4.466;2023-04-10T05:39:13;6.90;;;3.75;;
67981;SDS011;64109;52.148;4.466;2023-04-10T05:41:39;5.65;;;3.78;;
67981;SDS011;64109;52.148;4.466;2023-04-10T05:44:05;6.72;;;3.80;;
67981;SDS011;64109;52.148;4.466;2023-04-10T05:46:31;9.77;;;3.65;;
67981;SDS011;64109;52.148;4.466;2023-04-10T05:48:58;9.60;;;3.67;;
67981;SDS011;64109;52.148;4.466;2023-04-10T05:51:24;5.93;;;3.58;;
67981;SDS011;64109;52.148;4.466;2023-04-10T05:53:51;4.80;;;3.38;;
67981;SDS011;64109;52.148;4.466;2023-04-10T05:56:17;9.63;;;3.38;;
67981;SDS011;64109;52.148;4.466;2023-04-10T05:58:43;5.25;;;3.08;;
67981;SDS011;64109;52.148;4.466;2023-04-10T06:01:09;6.18;;;3.38;;
67981;SDS011;64109;52.148;4.466;2023-04-10T06:03:35;4.65;;;3.30;;
67981;SDS011;64109;52.148;4.466;2023-04-10T06:06:01;4.95;;;3.10;;
67981;SDS011;64109;52.148;4.466;2023-04-10T06:08:27;7.70;;;2.97;;
67981;SDS011;64109;52.148;4.466;2023-04-10T06:10:53;5.00;;;2.65;;
67981;SDS011;64109;52.148;4.466;2023-04-10T06:13:19;5.88;;;3.50;;
67981;SDS011;64109;52.148;4.466;2023-04-10T06:15:45;4.78;;;3.22;;
67981;SDS011;64109;52.148;4.466;2023-04-10T06:18:11;5.05;;;3.20;;
67981;SDS011;64109;52.148;4.466;2023-04-10T06:20:37;4.90;;;3.53;;
67981;SDS011;64109;52.148;4.466;2023-04-10T06:23:03;3.78;;;2.67;;
67981;SDS011;64109;52.148;4.466;2023-04-10T06:25:30;6.95;;;3.55;;
67981;SDS011;64109;52.148;4.466;2023-04-10T06:27:56;6.55;;;3.70;;
67981;SDS011;64109;52.148;4.466;2023-04-10T06:30:22;6.05;;;4.10;;
67981;SDS011;64109;52.148;4.466;2023-04-10T06:32:48;5.80;;;3.80;;
67981;SDS011;64109;52.148;4.466;2023-04-10T06:35:14;7.47;;;3.47;;
67981;SDS011;64109;52.148;4.466;2023-04-10T06:37:40;6.38;;;3.30;;
67981;SDS011;64109;52.148;4.466;2023-04-10T06:40:07;4.88;;;3.17;;
67981;SDS011;64109;52.148;4.466;2023-04-10T06:42:34;7.43;;;3.88;;
67981;SDS011;64109;52.148;4.466;2023-04-10T06:45:00;6.93;;;3.08;;
67981;SDS011;64109;52.148;4.466;2023-04-10T06:47:26;4.90;;;3.13;;
67981;SDS011;64109;52.148;4.466;2023-04-10T06:49:53;6.70;;;3.00;;
67981;SDS011;64109;52.148;4.466;2023-04-10T06:52:19;7.00;;;3.40;;
67981;SDS011;64109;52.148;4.466;2023-04-10T06:54:45;5.00;;;3.03;;
67981;SDS011;64109;52.148;4.466;2023-04-10T06:57:11;4.32;;;3.00;;
67981;SDS011;64109;52.148;4.466;2023-04-10T06:59:37;5.78;;;3.25;;
67981;SDS011;64109;52.148;4.466;2023-04-10T07:02:03;5.78;;;2.80;;
67981;SDS011;64109;52.148;4.466;2023-04-10T07:04:29;4.75;;;3.08;;
67981;SDS011;64109;52.148;4.466;2023-04-10T07:06:55;4.40;;;3.35;;
67981;SDS011;64109;52.148;4.466;2023-04-10T07:09:23;5.40;;;2.92;;
67981;SDS011;64109;52.148;4.466;2023-04-10T07:11:50;5.07;;;2.92;;
67981;SDS011;64109;52.148;4.466;2023-04-10T07:14:16;8.65;;;3.25;;
67981;SDS011;64109;52.148;4.466;2023-04-10T07:16:42;6.13;;;3.05;;
67981;SDS011;64109;52.148;4.466;2023-04-10T07:19:08;4.93;;;2.97;;
67981;SDS011;64109;52.148;4.466;2023-04-10T07:21:35;6.32;;;2.85;;
67981;SDS011;64109;52.148;4.466;2023-04-10T07:24:01;5.10;;;3.22;;
67981;SDS011;64109;52.148;4.466;2023-04-10T07:26:27;6.28;;;3.22;;
67981;SDS011;64109;52.148;4.466;2023-04-10T07:28:53;5.68;;;2.92;;
67981;SDS011;64109;52.148;4.466;2023-04-10T07:31:19;4.93;;;3.30;;
67981;SDS011;64109;52.148;4.466;2023-04-10T07:33:45;4.03;;;2.70;;
67981;SDS011;64109;52.148;4.466;2023-04-10T07:36:11;8.73;;;3.47;;
67981;SDS011;64109;52.148;4.466;2023-04-10T07:38:37;4.40;;;3.03;;
67981;SDS011;64109;52.148;4.466;2023-04-10T07:41:03;5.13;;;3.17;;
67981;SDS011;64109;52.148;4.466;2023-04-10T07:43:30;4.25;;;2.95;;
67981;SDS011;64109;52.148;4.466;2023-04-10T07:45:56;7.55;;;3.30;;
67981;SDS011;64109;52.148;4.466;2023-04-10T07:48:22;4.30;;;2.92;;
67981;SDS011;64109;52.148;4.466;2023-04-10T07:50:48;4.50;;;2.80;;
67981;SDS011;64109;52.148;4.466;2023-04-10T07:53:14;4.70;;;2.90;;
67981;SDS011;64109;52.148;4.466;2023-04-10T07:55:41;4.90;;;2.90;;
67981;SDS011;64109;52.148;4.466;2023-04-10T07:58:07;5.28;;;3.22;;
67981;SDS011;64109;52.148;4.466;2023-04-10T08:00:33;4.90;;;3.30;;
67981;SDS011;64109;52.148;4.466;2023-04-10T08:02:59;5.03;;;2.90;;
67981;SDS011;64109;52.148;4.466;2023-04-10T08:05:25;5.60;;;2.80;;
67981;SDS011;64109;52.148;4.466;2023-04-10T08:07:51;6.07;;;3.15;;
67981;SDS011;64109;52.148;4.466;2023-04-10T08:10:18;3.83;;;3.10;;
67981;SDS011;64109;52.148;4.466;2023-04-10T08:12:44;10.02;;;3.83;;
67981;SDS011;64109;52.148;4.466;2023-04-10T08:15:10;10.15;;;3.67;;
67981;SDS011;64109;52.148;4.466;2023-04-10T08:17:36;5.60;;;3.03;;
67981;SDS011;64109;52.148;4.466;2023-04-10T08:20:02;7.95;;;3.00;;
67981;SDS011;64109;52.148;4.466;2023-04-10T08:22:29;6.50;;;3.10;;
67981;SDS011;64109;52.148;4.466;2023-04-10T08:24:55;6.55;;;2.70;;
67981;SDS011;64109;52.148;4.466;2023-04-10T08:27:21;6.22;;;3.40;;
67981;SDS011;64109;52.148;4.466;2023-04-10T08:29:47;14.65;;;3.53;;
67981;SDS011;64109;52.148;4.466;2023-04-10T08:32:13;8.73;;;3.38;;
67981;SDS011;64109;52.148;4.466;2023-04-10T08:34:38;6.60;;;3.30;;
67981;SDS011;64109;52.148;4.466;2023-04-10T08:37:05;14.10;;;3.25;;
67981;SDS011;64109;52.148;4.466;2023-04-10T08:39:35;6.60;;;3.28;;
67981;SDS011;64109;52.148;4.466;2023-04-10T08:42:01;6.75;;;3.40;;
67981;SDS011;64109;52.148;4.466;2023-04-10T08:44:27;7.38;;;2.80;;
67981;SDS011;64109;52.148;4.466;2023-04-10T08:46:54;5.40;;;2.78;;
67981;SDS011;64109;52.148;4.466;2023-04-10T08:52:00;5.63;;;3.10;;
67981;SDS011;64109;52.148;4.466;2023-04-10T08:54:27;4.03;;;2.78;;
67981;SDS011;64109;52.148;4.466;2023-04-10T08:56:54;6.72;;;3.13;;
67981;SDS011;64109;52.148;4.466;2023-04-10T08:59:20;9.07;;;3.17;;
67981;SDS011;64109;52.148;4.466;2023-04-10T09:01:46;5.72;;;2.53;;
67981;SDS011;64109;52.148;4.466;2023-04-10T09:04:12;4.05;;;2.85;;
67981;SDS011;64109;52.148;4.466;2023-04-10T09:06:38;6.85;;;2.95;;
67981;SDS011;64109;52.148;4.466;2023-04-10T09:09:05;8.68;;;3.20;;
67981;SDS011;64109;52.148;4.466;2023-04-10T09:14:34;4.70;;;2.63;;
67981;SDS011;64109;52.148;4.466;2023-04-10T09:19:35;7.53;;;2.60;;
67981;SDS011;64109;52.148;4.466;2023-04-10T09:22:01;4.50;;;2.88;;
67981;SDS011;64109;52.148;4.466;2023-04-10T09:24:27;5.50;;;2.80;;
67981;SDS011;64109;52.148;4.466;2023-04-10T09:26:54;4.70;;;3.15;;
67981;SDS011;64109;52.148;4.466;2023-04-10T09:29:20;5.78;;;2.83;;
67981;SDS011;64109;52.148;4.466;2023-04-10T09:31:46;5.00;;;3.35;;
67981;SDS011;64109;52.148;4.466;2023-04-10T09:34:16;3.65;;;2.78;;
67981;SDS011;64109;52.148;4.466;2023-04-10T09:36:43;5.47;;;3.30;;
67981;SDS011;64109;52.148;4.466;2023-04-10T09:39:09;5.97;;;2.72;;
67981;SDS011;64109;52.148;4.466;2023-04-10T09:41:52;5.53;;;2.95;;
67981;SDS011;64109;52.148;4.466;2023-04-10T09:44:28;3.65;;;2.50;;
67981;SDS011;64109;52.148;4.466;2023-04-10T09:49:23;3.80;;;2.53;;
67981;SDS011;64109;52.148;4.466;2023-04-10T09:51:49;4.85;;;2.80;;
67981;SDS011;64109;52.148;4.466;2023-04-10T09:54:15;4.43;;;2.78;;
67981;SDS011;64109;52.148;4.466;2023-04-10T09:56:41;4.82;;;2.83;;
67981;SDS011;64109;52.148;4.466;2023-04-10T09:59:10;6.07;;;3.00;;
67981;SDS011;64109;52.148;4.466;2023-04-10T10:01:37;4.57;;;2.42;;
67981;SDS011;64109;52.148;4.466;2023-04-10T10:04:04;3.88;;;2.90;;
67981;SDS011;64109;52.148;4.466;2023-04-10T10:06:30;7.53;;;2.70;;
67981;SDS011;64109;52.148;4.466;2023-04-10T10:09:05;4.07;;;2.53;;
67981;SDS011;64109;52.148;4.466;2023-04-10T10:11:32;5.63;;;3.05;;
67981;SDS011;64109;52.148;4.466;2023-04-10T10:14:01;5.70;;;3.03;;
67981;SDS011;64109;52.148;4.466;2023-04-10T10:19:12;6.93;;;3.10;;
67981;SDS011;64109;52.148;4.466;2023-04-10T10:21:42;5.13;;;3.30;;
67981;SDS011;64109;52.148;4.466;2023-04-10T10:24:08;6.05;;;3.05;;
67981;SDS011;64109;52.148;4.466;2023-04-10T10:26:36;5.55;;;3.58;;
67981;SDS011;64109;52.148;4.466;2023-04-10T10:29:04;7.30;;;3.63;;
67981;SDS011;64109;52.148;4.466;2023-04-10T10:31:31;7.70;;;4.22;;
67981;SDS011;64109;52.148;4.466;2023-04-10T10:33:59;7.53;;;3.88;;
67981;SDS011;64109;52.148;4.466;2023-04-10T10:36:30;7.82;;;4.47;;
67981;SDS011;64109;52.148;4.466;2023-04-10T10:41:27;9.70;;;5.32;;
67981;SDS011;64109;52.148;4.466;2023-04-10T10:44:13;10.85;;;5.32;;
67981;SDS011;64109;52.148;4.466;2023-04-10T10:46:51;11.50;;;5.63;;
67981;SDS011;64109;52.148;4.466;2023-04-10T10:49:21;8.88;;;5.68;;
67981;SDS011;64109;52.148;4.466;2023-04-10T10:51:50;14.48;;;6.25;;
67981;SDS011;64109;52.148;4.466;2023-04-10T10:54:29;12.30;;;6.03;;
67981;SDS011;64109;52.148;4.466;2023-04-10T10:56:56;11.38;;;6.13;;
67981;SDS011;64109;52.148;4.466;2023-04-10T11:02:13;12.65;;;6.65;;
67981;SDS011;64109;52.148;4.466;2023-04-10T11:07:11;13.55;;;7.07;;
67981;SDS011;64109;52.148;4.466;2023-04-10T11:12:10;13.30;;;7.25;;
67981;SDS011;64109;52.148;4.466;2023-04-10T11:14:36;10.80;;;6.53;;
67981;SDS011;64109;52.148;4.466;2023-04-10T11:17:03;11.05;;;6.53;;
67981;SDS011;64109;52.148;4.466;2023-04-10T11:19:29;12.63;;;6.38;;
67981;SDS011;64109;52.148;4.466;2023-04-10T11:22:15;12.68;;;6.88;;
67981;SDS011;64109;52.148;4.466;2023-04-10T11:24:51;13.00;;;6.32;;
67981;SDS011;64109;52.148;4.466;2023-04-10T11:29:43;13.82;;;5.97;;
67981;SDS011;64109;52.148;4.466;2023-04-10T11:32:09;13.75;;;6.70;;
67981;SDS011;64109;52.148;4.466;2023-04-10T11:34:37;9.10;;;6.38;;
67981;SDS011;64109;52.148;4.466;2023-04-10T11:37:08;10.65;;;5.80;;
67981;SDS011;64109;52.148;4.466;2023-04-10T11:39:34;10.73;;;5.95;;
67981;SDS011;64109;52.148;4.466;2023-04-10T11:42:00;12.23;;;6.80;;
67981;SDS011;64109;52.148;4.466;2023-04-10T11:44:30;10.57;;;6.07;;
67981;SDS011;64109;52.148;4.466;2023-04-10T11:46:59;11.20;;;5.82;;
67981;SDS011;64109;52.148;4.466;2023-04-10T11:49:32;9.65;;;7.00;;
67981;SDS011;64109;52.148;4.466;2023-04-10T11:51:58;9.55;;;5.95;;
67981;SDS011;64109;52.148;4.466;2023-04-10T11:54:25;9.52;;;5.57;;
67981;SDS011;64109;52.148;4.466;2023-04-10T11:59:22;8.60;;;5.47;;
67981;SDS011;64109;52.148;4.466;2023-04-10T12:01:48;8.32;;;5.20;;
67981;SDS011;64109;52.148;4.466;2023-04-10T12:04:18;8.43;;;5.28;;
67981;SDS011;64109;52.148;4.466;2023-04-10T12:09:14;9.50;;;5.10;;
67981;SDS011;64109;52.148;4.466;2023-04-10T12:14:20;9.48;;;5.75;;
67981;SDS011;64109;52.148;4.466;2023-04-10T12:16:46;7.70;;;4.72;;
67981;SDS011;64109;52.148;4.466;2023-04-10T12:19:13;8.73;;;5.00;;
67981;SDS011;64109;52.148;4.466;2023-04-10T12:21:40;8.02;;;4.45;;
67981;SDS011;64109;52.148;4.466;2023-04-10T12:24:07;7.65;;;4.65;;
67981;SDS011;64109;52.148;4.466;2023-04-10T12:26:33;7.03;;;4.40;;
67981;SDS011;64109;52.148;4.466;2023-04-10T12:28:59;7.07;;;4.65;;
67981;SDS011;64109;52.148;4.466;2023-04-10T12:31:26;10.18;;;4.32;;
67981;SDS011;64109;52.148;4.466;2023-04-10T12:33:52;8.77;;;4.68;;
67981;SDS011;64109;52.148;4.466;2023-04-10T12:36:22;7.18;;;4.65;;
67981;SDS011;64109;52.148;4.466;2023-04-10T12:38:48;9.48;;;4.80;;
67981;SDS011;64109;52.148;4.466;2023-04-10T12:41:20;8.00;;;4.32;;
67981;SDS011;64109;52.148;4.466;2023-04-10T12:43:46;7.18;;;4.53;;
67981;SDS011;64109;52.148;4.466;2023-04-10T12:46:21;6.38;;;3.60;;
67981;SDS011;64109;52.148;4.466;2023-04-10T12:48:48;6.30;;;4.03;;
67981;SDS011;64109;52.148;4.466;2023-04-10T12:51:14;7.47;;;4.70;;
67981;SDS011;64109;52.148;4.466;2023-04-10T12:53:43;6.53;;;4.35;;
67981;SDS011;64109;52.148;4.466;2023-04-10T12:56:10;6.55;;;4.00;;
67981;SDS011;64109;52.148;4.466;2023-04-10T12:58:37;6.95;;;4.40;;
67981;SDS011;64109;52.148;4.466;2023-04-10T13:01:04;5.60;;;3.78;;
67981;SDS011;64109;52.148;4.466;2023-04-10T13:03:30;7.10;;;4.15;;
67981;SDS011;64109;52.148;4.466;2023-04-10T13:05:57;13.60;;;3.90;;
67981;SDS011;64109;52.148;4.466;2023-04-10T13:08:24;5.70;;;3.38;;
67981;SDS011;64109;52.148;4.466;2023-04-10T13:10:50;9.60;;;4.20;;
67981;SDS011;64109;52.148;4.466;2023-04-10T13:13:16;7.30;;;3.75;;
67981;SDS011;64109;52.148;4.466;2023-04-10T13:15:42;6.15;;;3.90;;
67981;SDS011;64109;52.148;4.466;2023-04-10T13:18:08;10.00;;;4.30;;
67981;SDS011;64109;52.148;4.466;2023-04-10T13:20:38;7.10;;;3.45;;
67981;SDS011;64109;52.148;4.466;2023-04-10T13:23:04;7.65;;;3.75;;
67981;SDS011;64109;52.148;4.466;2023-04-10T13:25:31;7.18;;;3.83;;
67981;SDS011;64109;52.148;4.466;2023-04-10T13:27:58;7.38;;;3.70;;
67981;SDS011;64109;52.148;4.466;2023-04-10T13:30:24;7.47;;;3.60;;
67981;SDS011;64109;52.148;4.466;2023-04-10T13:32:50;6.75;;;3.60;;
67981;SDS011;64109;52.148;4.466;2023-04-10T13:35:16;9.05;;;3.72;;
67981;SDS011;64109;52.148;4.466;2023-04-10T13:37:42;6.53;;;3.45;;
67981;SDS011;64109;52.148;4.466;2023-04-10T13:40:09;8.43;;;3.17;;
67981;SDS011;64109;52.148;4.466;2023-04-10T13:42:36;7.68;;;3.67;;
67981;SDS011;64109;52.148;4.466;2023-04-10T13:45:02;5.85;;;3.60;;
67981;SDS011;64109;52.148;4.466;2023-04-10T13:47:28;9.95;;;3.50;;
67981;SDS011;64109;52.148;4.466;2023-04-10T13:49:54;8.27;;;3.40;;
67981;SDS011;64109;52.148;4.466;2023-04-10T13:52:20;8.98;;;3.58;;
67981;SDS011;64109;52.148;4.466;2023-04-10T13:54:46;7.75;;;3.08;;
67981;SDS011;64109;52.148;4.466;2023-04-10T13:57:11;8.10;;;3.35;;
67981;SDS011;64109;52.148;4.466;2023-04-10T13:59:37;5.90;;;3.05;;
67981;SDS011;64109;52.148;4.466;2023-04-10T14:02:04;6.30;;;3.25;;
67981;SDS011;64109;52.148;4.466;2023-04-10T14:04:30;6.30;;;3.45;;
67981;SDS011;64109;52.148;4.466;2023-04-10T14:06:56;6.50;;;2.95;;
67981;SDS011;64109;52.148;4.466;2023-04-10T14:09:24;5.55;;;3.20;;
67981;SDS011;64109;52.148;4.466;2023-04-10T14:11:51;5.38;;;3.33;;
67981;SDS011;64109;52.148;4.466;2023-04-10T14:14:17;6.07;;;3.08;;
67981;SDS011;64109;52.148;4.466;2023-04-10T14:16:43;6.18;;;3.30;;
67981;SDS011;64109;52.148;4.466;2023-04-10T14:19:09;8.32;;;3.05;;
67981;SDS011;64109;52.148;4.466;2023-04-10T14:21:35;8.73;;;3.70;;
67981;SDS011;64109;52.148;4.466;2023-04-10T14:24:01;12.38;;;3.45;;
67981;SDS011;64109;52.148;4.466;2023-04-10T14:26:27;8.20;;;3.40;;
67981;SDS011;64109;52.148;4.466;2023-04-10T14:28:53;8.82;;;3.17;;
67981;SDS011;64109;52.148;4.466;2023-04-10T14:31:19;8.00;;;3.47;;
67981;SDS011;64109;52.148;4.466;2023-04-10T14:33:45;8.18;;;3.20;;
67981;SDS011;64109;52.148;4.466;2023-04-10T14:36:11;5.78;;;3.15;;
67981;SDS011;64109;52.148;4.466;2023-04-10T14:38:37;12.43;;;3.40;;
67981;SDS011;64109;52.148;4.466;2023-04-10T14:41:03;12.18;;;3.42;;
67981;SDS011;64109;52.148;4.466;2023-04-10T14:43:29;10.40;;;3.22;;
67981;SDS011;64109;52.148;4.466;2023-04-10T14:45:55;15.55;;;3.63;;
67981;SDS011;64109;52.148;4.466;2023-04-10T14:48:21;7.00;;;3.00;;
67981;SDS011;64109;52.148;4.466;2023-04-10T14:50:47;10.85;;;3.30;;
67981;SDS011;64109;52.148;4.466;2023-04-10T14:53:14;6.80;;;3.20;;
67981;SDS011;64109;52.148;4.466;2023-04-10T14:55:40;7.50;;;3.17;;
67981;SDS011;64109;52.148;4.466;2023-04-10T14:58:06;14.50;;;3.25;;
67981;SDS011;64109;52.148;4.466;2023-04-10T15:00:33;7.43;;;2.88;;
67981;SDS011;64109;52.148;4.466;2023-04-10T15:02:59;9.93;;;3.15;;
67981;SDS011;64109;52.148;4.466;2023-04-10T15:05:26;9.25;;;3.42;;
67981;SDS011;64109;52.148;4.466;2023-04-10T15:07:52;9.45;;;3.45;;
67981;SDS011;64109;52.148;4.466;2023-04-10T15:10:18;7.75;;;3.42;;
67981;SDS011;64109;52.148;4.466;2023-04-10T15:12:44;8.32;;;2.88;;
67981;SDS011;64109;52.148;4.466;2023-04-10T15:15:10;10.05;;;3.15;;
67981;SDS011;64109;52.148;4.466;2023-04-10T15:17:36;9.38;;;3.28;;
67981;SDS011;64109;52.148;4.466;2023-04-10T15:20:02;9.95;;;3.42;;
67981;SDS011;64109;52.148;4.466;2023-04-10T15:22:29;9.57;;;3.00;;
67981;SDS011;64109;52.148;4.466;2023-04-10T15:24:55;5.68;;;2.42;;
67981;SDS011;64109;52.148;4.466;2023-04-10T15:27:21;9.27;;;3.00;;
67981;SDS011;64109;52.148;4.466;2023-04-10T15:29:47;7.55;;;3.47;;
67981;SDS011;64109;52.148;4.466;2023-04-10T15:32:13;7.57;;;2.90;;
67981;SDS011;64109;52.148;4.466;2023-04-10T15:34:39;8.18;;;2.80;;
67981;SDS011;64109;52.148;4.466;2023-04-10T15:37:05;6.78;;;3.17;;